createdAt,value
2022-08-23T00:02:41.105Z,17.00
2022-08-23T00:08:03.661Z,17.00
2022-08-23T00:13:25.832Z,17.00
2022-08-23T00:19:09.992Z,17.00
2022-08-23T00:24:32.768Z,17.00
2022-08-23T00:30:01.474Z,16.80
2022-08-23T00:35:26.430Z,16.70
2022-08-23T00:40:52.488Z,16.70
2022-08-23T00:46:48.611Z,16.80
2022-08-23T00:52:13.988Z,16.90
2022-08-23T00:57:37.363Z,17.00
2022-08-23T01:03:00.060Z,16.90
2022-08-23T01:08:25.739Z,16.80
2022-08-23T01:13:58.419Z,17.00
2022-08-23T01:19:31.769Z,16.90
2022-08-23T01:25:06.117Z,16.90
2022-08-23T01:30:35.336Z,16.90
2022-08-23T01:35:58.717Z,16.90
2022-08-23T01:41:23.838Z,16.90
2022-08-23T01:46:47.040Z,16.90
2022-08-23T01:52:09.285Z,16.90
2022-08-23T01:57:32.732Z,17.10
2022-08-23T02:02:57.837Z,17.20
2022-08-23T02:08:38.565Z,17.20
2022-08-23T02:14:05.527Z,17.20
2022-08-23T02:19:38.831Z,17.10
2022-08-23T02:25:01.569Z,17.20
2022-08-23T02:30:23.746Z,17.00
2022-08-23T02:35:48.179Z,17.00
2022-08-23T02:41:11.943Z,17.10
2022-08-23T02:46:34.583Z,17.20
2022-08-23T02:51:57.250Z,17.10
2022-08-23T02:57:19.415Z,16.90
2022-08-23T03:02:42.350Z,17.00
2022-08-23T03:08:05.364Z,17.00
2022-08-23T03:13:34.610Z,17.00
2022-08-23T03:18:56.868Z,17.00
2022-08-23T03:24:19.112Z,17.00
2022-08-23T03:29:41.287Z,17.00
2022-08-23T03:35:04.196Z,17.10
2022-08-23T03:40:33.256Z,17.10
2022-08-23T03:45:56.330Z,17.10
2022-08-23T03:51:19.593Z,17.10
2022-08-23T03:56:56.994Z,17.20
2022-08-23T04:02:19.972Z,17.20
2022-08-23T04:07:42.418Z,17.20
2022-08-23T04:13:05.157Z,17.20
2022-08-23T04:18:30.028Z,17.20
2022-08-23T04:23:52.783Z,17.20
2022-08-23T04:29:24.886Z,17.30
2022-08-23T04:34:57.613Z,17.40
2022-08-23T04:40:38.371Z,17.40
2022-08-23T04:46:00.821Z,17.50
2022-08-23T04:51:29.359Z,17.40
2022-08-23T04:56:52.042Z,17.50
2022-08-23T05:02:16.596Z,17.60
2022-08-23T05:07:42.392Z,17.60
2022-08-23T05:13:06.039Z,17.60
2022-08-23T05:18:28.310Z,17.70
2022-08-23T05:23:54.813Z,17.80
2022-08-23T05:29:21.470Z,18.00
2022-08-23T05:34:45.919Z,18.20
2022-08-23T05:40:08.837Z,18.40
2022-08-23T05:45:38.388Z,18.50
2022-08-23T05:51:26.053Z,18.50
2022-08-23T05:56:48.693Z,18.40
2022-08-23T06:02:11.897Z,18.50
2022-08-23T06:07:35.029Z,18.60
2022-08-23T06:12:57.928Z,18.60
2022-08-23T06:18:20.945Z,18.70
2022-08-23T06:23:46.981Z,18.80
2022-08-23T06:29:16.613Z,19.00
2022-08-23T06:34:40.515Z,19.00
2022-08-23T06:40:38.967Z,19.30
2022-08-23T06:46:23.724Z,19.40
2022-08-23T06:51:51.103Z,19.30
2022-08-23T06:57:35.722Z,19.30
2022-08-23T07:03:17.757Z,19.40
2022-08-23T07:09:00.087Z,19.70
2022-08-23T07:14:24.356Z,20.00
2022-08-23T07:19:49.186Z,20.40
2022-08-23T07:25:12.768Z,20.70
2022-08-23T07:30:40.043Z,20.70
2022-08-23T07:36:07.141Z,20.90
2022-08-23T07:41:33.058Z,20.90
2022-08-23T07:46:57.652Z,20.60
2022-08-23T07:52:23.593Z,20.30
2022-08-23T07:57:47.077Z,20.40
2022-08-23T08:03:33.530Z,20.50
2022-08-23T08:09:16.233Z,20.50
2022-08-23T08:14:40.728Z,20.60
2022-08-23T08:20:05.535Z,20.90
2022-08-23T08:25:45.892Z,21.00
2022-08-23T08:31:13.236Z,20.90
2022-08-23T08:36:46.146Z,21.40
2022-08-23T08:42:34.612Z,21.40
2022-08-23T08:48:13.190Z,21.10
2022-08-23T08:53:49.434Z,21.60
2022-08-23T08:59:30.420Z,21.00
2022-08-23T09:04:54.542Z,21.00
2022-08-23T09:10:22.491Z,20.80
2022-08-23T09:16:28.865Z,20.80
2022-08-23T09:22:13.615Z,21.50
2022-08-23T09:27:42.007Z,22.60
2022-08-23T09:33:35.475Z,23.80
2022-08-23T09:39:03.807Z,23.30
2022-08-23T09:44:44.288Z,23.40
2022-08-23T09:50:25.790Z,23.20
2022-08-23T09:55:57.328Z,22.30
2022-08-23T10:01:35.413Z,22.10
2022-08-23T10:07:37.104Z,21.90
2022-08-23T10:13:02.494Z,22.40
2022-08-23T10:18:52.211Z,23.20
2022-08-23T10:24:49.557Z,23.60
2022-08-23T10:30:22.071Z,23.70
2022-08-23T10:35:44.513Z,23.00
2022-08-23T10:41:43.521Z,24.00
2022-08-23T10:47:33.711Z,24.80
2022-08-23T10:53:05.466Z,25.20
2022-08-23T10:58:30.804Z,25.90
2022-08-23T11:04:03.717Z,25.90
2022-08-23T11:10:16.708Z,24.70
2022-08-23T11:16:14.075Z,24.60
2022-08-23T11:21:48.262Z,24.60
2022-08-23T11:27:54.100Z,24.60
2022-08-23T11:33:57.542Z,24.60
2022-08-23T11:39:35.293Z,23.90
2022-08-23T11:45:27.629Z,23.70
2022-08-23T11:51:25.203Z,24.00
2022-08-23T11:56:53.095Z,24.50
2022-08-23T12:03:02.230Z,25.00
2022-08-23T12:08:31.259Z,25.20
2022-08-23T12:14:47.061Z,25.30
2022-08-23T12:20:30.004Z,24.90
2022-08-23T12:26:20.930Z,26.00
2022-08-23T12:31:57.727Z,25.70
2022-08-23T12:37:23.767Z,25.30
2022-08-23T12:42:51.860Z,25.20
2022-08-23T12:48:18.206Z,24.80
2022-08-23T12:53:46.294Z,25.30
2022-08-23T12:59:31.675Z,25.50
2022-08-23T13:04:59.987Z,25.50
2022-08-23T13:10:26.235Z,25.20
2022-08-23T13:15:56.409Z,25.50
2022-08-23T13:21:32.008Z,26.00
2022-08-23T13:27:28.838Z,25.80
2022-08-23T13:33:10.589Z,25.90
2022-08-23T13:38:35.732Z,25.20
2022-08-23T13:44:07.916Z,24.70
2022-08-23T13:49:42.358Z,25.20
2022-08-23T13:55:06.249Z,25.20
2022-08-23T14:00:29.322Z,25.30
2022-08-23T14:06:00.055Z,25.30
2022-08-23T14:11:23.054Z,25.10
2022-08-23T14:16:46.056Z,25.10
2022-08-23T14:22:12.057Z,24.80
2022-08-23T14:27:35.743Z,24.70
2022-08-23T14:33:00.732Z,24.70
2022-08-23T14:38:24.447Z,24.60
2022-08-23T14:43:49.364Z,24.70
2022-08-23T14:49:13.564Z,24.70
2022-08-23T14:54:37.246Z,24.60
2022-08-23T15:00:00.445Z,24.60
2022-08-23T15:05:23.695Z,24.40
2022-08-23T15:10:50.154Z,24.60
2022-08-23T15:16:16.969Z,24.50
2022-08-23T15:21:40.145Z,24.30
2022-08-23T15:27:04.282Z,24.60
2022-08-23T15:32:27.150Z,24.50
2022-08-23T15:37:51.043Z,24.70
2022-08-23T15:43:13.909Z,24.50
2022-08-23T15:48:43.332Z,24.60
2022-08-23T15:54:06.210Z,24.70
2022-08-23T15:59:30.350Z,24.80
2022-08-23T16:04:53.366Z,24.90
2022-08-23T16:10:16.522Z,24.70
2022-08-23T16:15:40.431Z,24.80
2022-08-23T16:21:03.708Z,24.60
2022-08-23T16:26:35.107Z,24.80
2022-08-23T16:31:58.879Z,24.80
2022-08-23T16:37:22.450Z,24.60
2022-08-23T16:42:53.203Z,24.40
2022-08-23T16:48:16.189Z,24.10
2022-08-23T16:53:39.736Z,23.80
2022-08-23T16:59:04.866Z,23.70
2022-08-23T17:04:30.281Z,23.60
2022-08-23T17:09:53.965Z,23.40
2022-08-23T17:15:22.005Z,23.10
2022-08-23T17:20:45.177Z,22.80
2022-08-23T17:26:10.154Z,22.60
2022-08-23T17:31:33.405Z,22.40
2022-08-23T17:36:56.605Z,22.10
2022-08-23T17:42:21.216Z,22.00
2022-08-23T17:47:44.942Z,21.90
2022-08-23T17:53:07.915Z,21.80
2022-08-23T17:58:30.838Z,21.60
2022-08-23T18:03:54.031Z,21.40
2022-08-23T18:09:18.136Z,21.20
2022-08-23T18:14:41.593Z,21.10
2022-08-23T18:20:08.291Z,21.10
2022-08-23T18:25:31.782Z,21.00
2022-08-23T18:30:56.142Z,20.80
2022-08-23T18:36:19.616Z,20.80
2022-08-23T18:41:42.733Z,20.80
2022-08-23T18:47:06.096Z,20.60
2022-08-23T18:52:31.105Z,20.50
2022-08-23T18:57:54.292Z,20.40
2022-08-23T19:03:18.100Z,20.40
2022-08-23T19:08:41.171Z,20.30
2022-08-23T19:14:05.577Z,20.20
2022-08-23T19:19:28.405Z,20.10
2022-08-23T19:24:51.095Z,20.00
2022-08-23T19:30:17.376Z,20.10
2022-08-23T19:35:40.697Z,20.10
2022-08-23T19:41:06.124Z,20.20
2022-08-23T19:46:29.082Z,20.20
2022-08-23T19:51:53.117Z,20.20
2022-08-23T19:57:16.703Z,20.10
2022-08-23T20:02:48.487Z,20.10
2022-08-23T20:08:12.685Z,20.00
2022-08-23T20:13:35.849Z,20.00
2022-08-23T20:18:59.544Z,19.90
2022-08-23T20:24:37.341Z,19.90
2022-08-23T20:30:08.378Z,19.80
2022-08-23T20:35:31.955Z,19.80
2022-08-23T20:40:55.721Z,19.90
2022-08-23T20:46:19.086Z,19.80
2022-08-23T20:51:42.655Z,19.90
2022-08-23T20:57:06.750Z,19.80
2022-08-23T21:02:29.976Z,19.80
2022-08-23T21:07:56.581Z,19.80
2022-08-23T21:13:21.336Z,19.90
2022-08-23T21:18:44.968Z,19.90
2022-08-23T21:24:12.144Z,19.90
2022-08-23T21:29:35.425Z,19.80
2022-08-23T21:34:59.209Z,19.80
2022-08-23T21:40:26.565Z,19.80
2022-08-23T21:45:49.768Z,19.90
2022-08-23T21:51:14.759Z,19.90
2022-08-23T21:56:44.729Z,19.90
2022-08-23T22:02:08.395Z,19.80
2022-08-23T22:07:32.896Z,19.90
2022-08-23T22:12:56.365Z,19.80
2022-08-23T22:18:20.171Z,19.80
2022-08-23T22:24:12.220Z,19.70
2022-08-23T22:29:36.531Z,19.50
2022-08-23T22:35:00.318Z,19.50
2022-08-23T22:40:22.609Z,19.40
2022-08-23T22:45:56.919Z,19.30
2022-08-23T22:51:22.704Z,19.40
2022-08-23T22:56:48.750Z,19.40
2022-08-23T23:02:10.903Z,19.30
2022-08-23T23:07:52.283Z,19.30
2022-08-23T23:13:14.420Z,19.50
2022-08-23T23:18:37.465Z,19.50
2022-08-23T23:23:59.596Z,19.50
2022-08-23T23:29:22.493Z,19.60
2022-08-23T23:34:44.544Z,19.60
2022-08-23T23:40:07.382Z,19.60
2022-08-23T23:45:29.878Z,19.60
2022-08-23T23:50:52.019Z,19.50
2022-08-23T23:56:15.995Z,19.40
